sensor_id;sensor_type;location;lat;lon;timestamp;P1;durP1;ratioP1;P2;durP2;ratioP2
57730;SDS011;43570;47.476;19.040;2023-02-04T00:00:10;10.95;;;3.25;;
57730;SDS011;43570;47.476;19.040;2023-02-04T00:02:38;9.57;;;3.33;;
57730;SDS011;43570;47.476;19.040;2023-02-04T00:05:04;10.93;;;3.60;;
57730;SDS011;43570;47.476;19.040;2023-02-04T00:07:30;10.50;;;3.70;;
57730;SDS011;43570;47.476;19.040;2023-02-04T00:09:55;11.68;;;3.62;;
57730;SDS011;43570;47.476;19.040;2023-02-04T00:12:21;9.50;;;3.42;;
57730;SDS011;43570;47.476;19.040;2023-02-04T00:14:46;8.02;;;3.12;;
57730;SDS011;43570;47.476;19.040;2023-02-04T00:17:11;11.07;;;3.62;;
57730;SDS011;43570;47.476;19.040;2023-02-04T00:19:38;10.75;;;3.33;;
57730;SDS011;43570;47.476;19.040;2023-02-04T00:22:04;12.40;;;3.83;;
57730;SDS011;43570;47.476;19.040;2023-02-04T00:24:31;9.70;;;3.20;;
57730;SDS011;43570;47.476;19.040;2023-02-04T00:26:56;12.32;;;3.60;;
57730;SDS011;43570;47.476;19.040;2023-02-04T00:29:22;9.00;;;3.40;;
57730;SDS011;43570;47.476;19.040;2023-02-04T00:31:47;9.15;;;3.30;;
57730;SDS011;43570;47.476;19.040;2023-02-04T00:34:12;8.05;;;3.28;;
57730;SDS011;43570;47.476;19.040;2023-02-04T00:36:38;10.05;;;3.22;;
57730;SDS011;43570;47.476;19.040;2023-02-04T00:39:03;11.05;;;3.37;;
57730;SDS011;43570;47.476;19.040;2023-02-04T00:41:29;7.47;;;2.75;;
57730;SDS011;43570;47.476;19.040;2023-02-04T00:43:54;8.32;;;3.25;;
57730;SDS011;43570;47.476;19.040;2023-02-04T00:46:19;9.73;;;3.28;;
57730;SDS011;43570;47.476;19.040;2023-02-04T00:48:45;10.77;;;3.05;;
57730;SDS011;43570;47.476;19.040;2023-02-04T00:51:10;9.23;;;3.20;;
57730;SDS011;43570;47.476;19.040;2023-02-04T00:53:35;9.43;;;3.20;;
57730;SDS011;43570;47.476;19.040;2023-02-04T00:56:01;9.68;;;3.62;;
57730;SDS011;43570;47.476;19.040;2023-02-04T00:58:26;14.27;;;3.97;;
57730;SDS011;43570;47.476;19.040;2023-02-04T01:00:52;10.48;;;3.55;;
57730;SDS011;43570;47.476;19.040;2023-02-04T01:03:17;8.93;;;3.00;;
57730;SDS011;43570;47.476;19.040;2023-02-04T01:05:42;11.40;;;3.80;;
57730;SDS011;43570;47.476;19.040;2023-02-04T01:08:08;12.52;;;3.33;;
57730;SDS011;43570;47.476;19.040;2023-02-04T01:10:33;8.80;;;3.28;;
57730;SDS011;43570;47.476;19.040;2023-02-04T01:12:59;9.68;;;3.25;;
57730;SDS011;43570;47.476;19.040;2023-02-04T01:15:24;11.70;;;3.45;;
57730;SDS011;43570;47.476;19.040;2023-02-04T01:17:50;9.73;;;3.10;;
57730;SDS011;43570;47.476;19.040;2023-02-04T01:20:15;9.30;;;3.42;;
57730;SDS011;43570;47.476;19.040;2023-02-04T01:22:41;13.50;;;3.42;;
57730;SDS011;43570;47.476;19.040;2023-02-04T01:25:06;8.40;;;3.20;;
57730;SDS011;43570;47.476;19.040;2023-02-04T01:27:32;8.10;;;3.05;;
57730;SDS011;43570;47.476;19.040;2023-02-04T01:29:58;8.32;;;2.87;;
57730;SDS011;43570;47.476;19.040;2023-02-04T01:32:23;9.20;;;2.87;;
57730;SDS011;43570;47.476;19.040;2023-02-04T01:34:48;10.23;;;3.30;;
57730;SDS011;43570;47.476;19.040;2023-02-04T01:37:14;7.90;;;2.83;;
57730;SDS011;43570;47.476;19.040;2023-02-04T01:39:39;10.13;;;3.12;;
57730;SDS011;43570;47.476;19.040;2023-02-04T01:42:05;10.15;;;2.85;;
57730;SDS011;43570;47.476;19.040;2023-02-04T01:44:30;9.50;;;3.25;;
57730;SDS011;43570;47.476;19.040;2023-02-04T01:46:56;9.95;;;3.00;;
57730;SDS011;43570;47.476;19.040;2023-02-04T01:49:21;6.28;;;2.90;;
57730;SDS011;43570;47.476;19.040;2023-02-04T01:51:47;8.20;;;2.70;;
57730;SDS011;43570;47.476;19.040;2023-02-04T01:54:12;9.05;;;3.00;;
57730;SDS011;43570;47.476;19.040;2023-02-04T01:56:39;8.52;;;2.92;;
57730;SDS011;43570;47.476;19.040;2023-02-04T01:59:12;8.00;;;2.47;;
57730;SDS011;43570;47.476;19.040;2023-02-04T02:01:40;9.98;;;3.08;;
57730;SDS011;43570;47.476;19.040;2023-02-04T02:04:08;7.87;;;2.70;;
57730;SDS011;43570;47.476;19.040;2023-02-04T02:06:35;10.07;;;3.10;;
57730;SDS011;43570;47.476;19.040;2023-02-04T02:09:02;11.75;;;3.30;;
57730;SDS011;43570;47.476;19.040;2023-02-04T02:11:28;9.27;;;2.67;;
57730;SDS011;43570;47.476;19.040;2023-02-04T02:13:54;7.47;;;2.75;;
57730;SDS011;43570;47.476;19.040;2023-02-04T02:16:19;7.15;;;2.80;;
57730;SDS011;43570;47.476;19.040;2023-02-04T02:18:45;9.20;;;2.80;;
57730;SDS011;43570;47.476;19.040;2023-02-04T02:21:11;9.40;;;3.08;;
57730;SDS011;43570;47.476;19.040;2023-02-04T02:23:51;7.80;;;2.87;;
57730;SDS011;43570;47.476;19.040;2023-02-04T02:26:19;8.88;;;2.80;;
57730;SDS011;43570;47.476;19.040;2023-02-04T02:28:45;9.88;;;2.83;;
57730;SDS011;43570;47.476;19.040;2023-02-04T02:31:14;8.27;;;2.80;;
57730;SDS011;43570;47.476;19.040;2023-02-04T02:33:40;7.18;;;2.33;;
57730;SDS011;43570;47.476;19.040;2023-02-04T02:36:06;10.15;;;3.12;;
57730;SDS011;43570;47.476;19.040;2023-02-04T02:38:31;5.50;;;2.42;;
57730;SDS011;43570;47.476;19.040;2023-02-04T02:40:57;9.13;;;2.67;;
57730;SDS011;43570;47.476;19.040;2023-02-04T02:43:23;6.35;;;2.40;;
57730;SDS011;43570;47.476;19.040;2023-02-04T02:45:50;7.70;;;2.60;;
57730;SDS011;43570;47.476;19.040;2023-02-04T02:48:16;9.20;;;3.03;;
57730;SDS011;43570;47.476;19.040;2023-02-04T02:50:42;8.25;;;2.55;;
57730;SDS011;43570;47.476;19.040;2023-02-04T02:53:12;7.18;;;2.33;;
57730;SDS011;43570;47.476;19.040;2023-02-04T02:55:38;7.45;;;2.50;;
57730;SDS011;43570;47.476;19.040;2023-02-04T02:58:04;9.65;;;2.87;;
57730;SDS011;43570;47.476;19.040;2023-02-04T03:00:29;7.20;;;2.00;;
57730;SDS011;43570;47.476;19.040;2023-02-04T03:05:28;10.80;;;3.20;;
57730;SDS011;43570;47.476;19.040;2023-02-04T03:07:54;8.43;;;2.65;;
57730;SDS011;43570;47.476;19.040;2023-02-04T03:10:20;6.18;;;2.30;;
57730;SDS011;43570;47.476;19.040;2023-02-04T03:12:45;8.25;;;2.20;;
57730;SDS011;43570;47.476;19.040;2023-02-04T03:15:11;9.10;;;2.42;;
57730;SDS011;43570;47.476;19.040;2023-02-04T03:17:38;9.30;;;2.10;;
57730;SDS011;43570;47.476;19.040;2023-02-04T03:20:03;6.75;;;2.37;;
57730;SDS011;43570;47.476;19.040;2023-02-04T03:22:29;8.27;;;2.55;;
57730;SDS011;43570;47.476;19.040;2023-02-04T03:24:55;8.20;;;2.85;;
57730;SDS011;43570;47.476;19.040;2023-02-04T03:27:22;7.30;;;2.58;;
57730;SDS011;43570;47.476;19.040;2023-02-04T03:29:48;10.05;;;2.40;;
57730;SDS011;43570;47.476;19.040;2023-02-04T03:32:13;8.95;;;3.15;;
57730;SDS011;43570;47.476;19.040;2023-02-04T03:34:39;8.32;;;2.15;;
57730;SDS011;43570;47.476;19.040;2023-02-04T03:37:04;8.38;;;2.53;;
57730;SDS011;43570;47.476;19.040;2023-02-04T03:39:30;8.48;;;2.72;;
57730;SDS011;43570;47.476;19.040;2023-02-04T03:41:55;10.35;;;2.58;;
57730;SDS011;43570;47.476;19.040;2023-02-04T03:44:20;7.12;;;2.37;;
57730;SDS011;43570;47.476;19.040;2023-02-04T03:46:50;7.35;;;2.33;;
57730;SDS011;43570;47.476;19.040;2023-02-04T03:49:19;6.95;;;2.65;;
57730;SDS011;43570;47.476;19.040;2023-02-04T03:51:45;6.78;;;2.55;;
57730;SDS011;43570;47.476;19.040;2023-02-04T03:54:10;7.93;;;2.75;;
57730;SDS011;43570;47.476;19.040;2023-02-04T03:56:36;8.25;;;2.62;;
57730;SDS011;43570;47.476;19.040;2023-02-04T03:59:01;9.48;;;2.55;;
57730;SDS011;43570;47.476;19.040;2023-02-04T04:01:26;9.65;;;2.87;;
57730;SDS011;43570;47.476;19.040;2023-02-04T04:03:52;8.70;;;2.58;;
57730;SDS011;43570;47.476;19.040;2023-02-04T04:06:17;9.57;;;2.20;;
57730;SDS011;43570;47.476;19.040;2023-02-04T04:08:43;6.32;;;2.08;;
57730;SDS011;43570;47.476;19.040;2023-02-04T04:11:08;10.07;;;2.37;;
57730;SDS011;43570;47.476;19.040;2023-02-04T04:13:33;10.38;;;2.40;;
57730;SDS011;43570;47.476;19.040;2023-02-04T04:15:59;10.32;;;2.90;;
57730;SDS011;43570;47.476;19.040;2023-02-04T04:18:24;7.87;;;2.62;;
57730;SDS011;43570;47.476;19.040;2023-02-04T04:20:49;6.85;;;2.35;;
57730;SDS011;43570;47.476;19.040;2023-02-04T04:23:15;7.70;;;2.30;;
57730;SDS011;43570;47.476;19.040;2023-02-04T04:25:40;9.20;;;2.25;;
57730;SDS011;43570;47.476;19.040;2023-02-04T04:28:06;6.32;;;2.05;;
57730;SDS011;43570;47.476;19.040;2023-02-04T04:30:31;9.32;;;2.25;;
57730;SDS011;43570;47.476;19.040;2023-02-04T04:32:56;7.03;;;2.25;;
57730;SDS011;43570;47.476;19.040;2023-02-04T04:35:22;9.95;;;2.60;;
57730;SDS011;43570;47.476;19.040;2023-02-04T04:37:47;9.02;;;2.08;;
57730;SDS011;43570;47.476;19.040;2023-02-04T04:40:13;7.87;;;2.30;;
57730;SDS011;43570;47.476;19.040;2023-02-04T04:42:38;8.55;;;2.20;;
57730;SDS011;43570;47.476;19.040;2023-02-04T04:45:07;8.23;;;2.10;;
57730;SDS011;43570;47.476;19.040;2023-02-04T04:47:34;7.35;;;2.65;;
57730;SDS011;43570;47.476;19.040;2023-02-04T04:49:59;5.43;;;1.95;;
57730;SDS011;43570;47.476;19.040;2023-02-04T04:52:24;5.43;;;1.73;;
57730;SDS011;43570;47.476;19.040;2023-02-04T04:54:50;5.45;;;1.95;;
57730;SDS011;43570;47.476;19.040;2023-02-04T04:57:15;5.32;;;1.80;;
57730;SDS011;43570;47.476;19.040;2023-02-04T04:59:41;6.10;;;1.95;;
57730;SDS011;43570;47.476;19.040;2023-02-04T05:02:06;7.55;;;1.80;;
57730;SDS011;43570;47.476;19.040;2023-02-04T05:04:31;6.40;;;2.20;;
57730;SDS011;43570;47.476;19.040;2023-02-04T05:06:57;5.65;;;2.00;;
57730;SDS011;43570;47.476;19.040;2023-02-04T05:09:22;7.10;;;1.85;;
57730;SDS011;43570;47.476;19.040;2023-02-04T05:11:48;4.57;;;1.60;;
57730;SDS011;43570;47.476;19.040;2023-02-04T05:14:13;5.82;;;1.92;;
57730;SDS011;43570;47.476;19.040;2023-02-04T05:16:38;5.28;;;1.60;;
57730;SDS011;43570;47.476;19.040;2023-02-04T05:19:04;5.40;;;1.70;;
57730;SDS011;43570;47.476;19.040;2023-02-04T05:21:29;5.15;;;1.80;;
57730;SDS011;43570;47.476;19.040;2023-02-04T05:23:54;5.78;;;1.90;;
57730;SDS011;43570;47.476;19.040;2023-02-04T05:26:20;6.97;;;1.87;;
57730;SDS011;43570;47.476;19.040;2023-02-04T05:28:45;5.20;;;1.60;;
57730;SDS011;43570;47.476;19.040;2023-02-04T05:31:11;6.93;;;2.00;;
57730;SDS011;43570;47.476;19.040;2023-02-04T05:33:36;3.42;;;1.45;;
57730;SDS011;43570;47.476;19.040;2023-02-04T05:36:01;5.70;;;1.60;;
57730;SDS011;43570;47.476;19.040;2023-02-04T05:38:27;5.62;;;1.92;;
57730;SDS011;43570;47.476;19.040;2023-02-04T05:40:52;6.70;;;1.87;;
57730;SDS011;43570;47.476;19.040;2023-02-04T05:43:18;6.25;;;1.65;;
57730;SDS011;43570;47.476;19.040;2023-02-04T05:45:43;6.32;;;1.60;;
57730;SDS011;43570;47.476;19.040;2023-02-04T05:48:08;3.87;;;1.15;;
57730;SDS011;43570;47.476;19.040;2023-02-04T05:50:34;3.97;;;1.27;;
57730;SDS011;43570;47.476;19.040;2023-02-04T05:52:59;3.05;;;1.50;;
57730;SDS011;43570;47.476;19.040;2023-02-04T05:55:25;6.03;;;1.40;;
57730;SDS011;43570;47.476;19.040;2023-02-04T05:57:50;3.80;;;1.40;;
57730;SDS011;43570;47.476;19.040;2023-02-04T06:00:15;4.57;;;1.42;;
57730;SDS011;43570;47.476;19.040;2023-02-04T06:02:41;5.18;;;1.30;;
57730;SDS011;43570;47.476;19.040;2023-02-04T06:05:06;3.90;;;1.40;;
57730;SDS011;43570;47.476;19.040;2023-02-04T06:07:32;2.70;;;1.30;;
57730;SDS011;43570;47.476;19.040;2023-02-04T06:09:57;2.30;;;1.37;;
57730;SDS011;43570;47.476;19.040;2023-02-04T06:12:23;3.55;;;1.40;;
57730;SDS011;43570;47.476;19.040;2023-02-04T06:14:48;3.10;;;1.15;;
57730;SDS011;43570;47.476;19.040;2023-02-04T06:17:13;1.15;;;1.05;;
57730;SDS011;43570;47.476;19.040;2023-02-04T06:19:39;1.52;;;0.95;;
57730;SDS011;43570;47.476;19.040;2023-02-04T06:22:04;1.73;;;1.30;;
57730;SDS011;43570;47.476;19.040;2023-02-04T06:24:29;1.67;;;1.10;;
57730;SDS011;43570;47.476;19.040;2023-02-04T06:26:55;3.22;;;1.20;;
57730;SDS011;43570;47.476;19.040;2023-02-04T06:29:20;2.12;;;1.12;;
57730;SDS011;43570;47.476;19.040;2023-02-04T06:31:46;2.92;;;1.12;;
57730;SDS011;43570;47.476;19.040;2023-02-04T06:34:13;2.78;;;1.20;;
57730;SDS011;43570;47.476;19.040;2023-02-04T06:36:38;1.67;;;1.20;;
57730;SDS011;43570;47.476;19.040;2023-02-04T06:39:03;2.42;;;1.33;;
57730;SDS011;43570;47.476;19.040;2023-02-04T06:41:29;1.83;;;1.20;;
57730;SDS011;43570;47.476;19.040;2023-02-04T06:43:54;2.62;;;1.30;;
57730;SDS011;43570;47.476;19.040;2023-02-04T06:46:19;2.60;;;1.37;;
57730;SDS011;43570;47.476;19.040;2023-02-04T06:48:45;1.62;;;1.12;;
57730;SDS011;43570;47.476;19.040;2023-02-04T06:51:10;1.65;;;1.30;;
57730;SDS011;43570;47.476;19.040;2023-02-04T06:53:36;2.25;;;1.25;;
57730;SDS011;43570;47.476;19.040;2023-02-04T06:56:01;2.03;;;1.30;;
57730;SDS011;43570;47.476;19.040;2023-02-04T06:58:27;1.83;;;1.10;;
57730;SDS011;43570;47.476;19.040;2023-02-04T07:00:52;1.30;;;1.20;;
57730;SDS011;43570;47.476;19.040;2023-02-04T07:03:18;2.70;;;1.35;;
57730;SDS011;43570;47.476;19.040;2023-02-04T07:05:43;3.62;;;1.40;;
57730;SDS011;43570;47.476;19.040;2023-02-04T07:08:08;1.60;;;1.20;;
57730;SDS011;43570;47.476;19.040;2023-02-04T07:10:34;2.53;;;1.70;;
57730;SDS011;43570;47.476;19.040;2023-02-04T07:12:59;1.67;;;1.30;;
57730;SDS011;43570;47.476;19.040;2023-02-04T07:15:24;2.25;;;1.50;;
57730;SDS011;43570;47.476;19.040;2023-02-04T07:17:50;2.65;;;1.52;;
57730;SDS011;43570;47.476;19.040;2023-02-04T07:20:17;2.78;;;1.60;;
57730;SDS011;43570;47.476;19.040;2023-02-04T07:22:43;4.43;;;1.90;;
57730;SDS011;43570;47.476;19.040;2023-02-04T07:25:08;5.57;;;2.45;;
57730;SDS011;43570;47.476;19.040;2023-02-04T07:27:34;3.45;;;2.12;;
57730;SDS011;43570;47.476;19.040;2023-02-04T07:29:59;3.05;;;2.12;;
57730;SDS011;43570;47.476;19.040;2023-02-04T07:32:25;2.85;;;2.28;;
57730;SDS011;43570;47.476;19.040;2023-02-04T07:34:52;4.15;;;2.55;;
57730;SDS011;43570;47.476;19.040;2023-02-04T07:37:17;4.15;;;2.85;;
57730;SDS011;43570;47.476;19.040;2023-02-04T07:39:44;4.03;;;2.53;;
57730;SDS011;43570;47.476;19.040;2023-02-04T07:42:10;4.25;;;2.80;;
57730;SDS011;43570;47.476;19.040;2023-02-04T07:44:41;4.95;;;2.78;;
57730;SDS011;43570;47.476;19.040;2023-02-04T07:47:07;5.30;;;3.40;;
57730;SDS011;43570;47.476;19.040;2023-02-04T07:49:32;5.62;;;3.62;;
57730;SDS011;43570;47.476;19.040;2023-02-04T07:51:58;5.20;;;3.80;;
57730;SDS011;43570;47.476;19.040;2023-02-04T07:54:23;6.07;;;3.70;;
57730;SDS011;43570;47.476;19.040;2023-02-04T07:56:48;6.87;;;4.25;;
57730;SDS011;43570;47.476;19.040;2023-02-04T07:59:14;6.68;;;4.30;;
57730;SDS011;43570;47.476;19.040;2023-02-04T08:01:39;5.93;;;3.75;;
57730;SDS011;43570;47.476;19.040;2023-02-04T08:04:05;5.65;;;4.20;;
57730;SDS011;43570;47.476;19.040;2023-02-04T08:06:30;5.80;;;4.18;;
57730;SDS011;43570;47.476;19.040;2023-02-04T08:08:55;6.40;;;4.22;;
57730;SDS011;43570;47.476;19.040;2023-02-04T08:11:21;6.10;;;4.12;;
57730;SDS011;43570;47.476;19.040;2023-02-04T08:13:46;6.78;;;4.22;;
57730;SDS011;43570;47.476;19.040;2023-02-04T08:16:12;6.35;;;4.55;;
57730;SDS011;43570;47.476;19.040;2023-02-04T08:18:37;7.18;;;4.60;;
57730;SDS011;43570;47.476;19.040;2023-02-04T08:21:02;6.70;;;4.60;;
57730;SDS011;43570;47.476;19.040;2023-02-04T08:23:30;6.90;;;4.90;;
57730;SDS011;43570;47.476;19.040;2023-02-04T08:25:57;7.18;;;4.68;;
57730;SDS011;43570;47.476;19.040;2023-02-04T08:28:22;6.50;;;4.60;;
57730;SDS011;43570;47.476;19.040;2023-02-04T08:30:48;6.15;;;4.43;;
57730;SDS011;43570;47.476;19.040;2023-02-04T08:33:14;7.28;;;4.93;;
57730;SDS011;43570;47.476;19.040;2023-02-04T08:35:39;6.93;;;4.82;;
57730;SDS011;43570;47.476;19.040;2023-02-04T08:38:04;6.75;;;4.70;;
57730;SDS011;43570;47.476;19.040;2023-02-04T08:40:30;8.45;;;4.75;;
57730;SDS011;43570;47.476;19.040;2023-02-04T08:42:55;5.97;;;4.20;;
57730;SDS011;43570;47.476;19.040;2023-02-04T08:45:20;5.40;;;3.97;;
57730;SDS011;43570;47.476;19.040;2023-02-04T08:47:46;6.12;;;4.25;;
57730;SDS011;43570;47.476;19.040;2023-02-04T08:50:11;6.20;;;4.18;;
57730;SDS011;43570;47.476;19.040;2023-02-04T08:52:37;5.22;;;3.50;;
57730;SDS011;43570;47.476;19.040;2023-02-04T08:55:02;6.90;;;4.25;;
57730;SDS011;43570;47.476;19.040;2023-02-04T08:57:28;5.55;;;4.07;;
57730;SDS011;43570;47.476;19.040;2023-02-04T08:59:54;7.22;;;4.07;;
57730;SDS011;43570;47.476;19.040;2023-02-04T09:02:19;6.28;;;4.00;;
57730;SDS011;43570;47.476;19.040;2023-02-04T09:04:45;5.35;;;3.83;;
57730;SDS011;43570;47.476;19.040;2023-02-04T09:07:10;6.43;;;3.62;;
57730;SDS011;43570;47.476;19.040;2023-02-04T09:09:35;7.18;;;4.25;;
57730;SDS011;43570;47.476;19.040;2023-02-04T09:12:01;6.47;;;3.80;;
57730;SDS011;43570;47.476;19.040;2023-02-04T09:14:27;4.97;;;3.30;;
57730;SDS011;43570;47.476;19.040;2023-02-04T09:16:52;5.40;;;3.28;;
57730;SDS011;43570;47.476;19.040;2023-02-04T09:19:18;7.35;;;3.37;;
57730;SDS011;43570;47.476;19.040;2023-02-04T09:21:49;5.03;;;3.10;;
57730;SDS011;43570;47.476;19.040;2023-02-04T09:24:14;5.60;;;2.97;;
57730;SDS011;43570;47.476;19.040;2023-02-04T09:26:40;6.00;;;3.20;;
57730;SDS011;43570;47.476;19.040;2023-02-04T09:29:05;4.90;;;2.90;;
57730;SDS011;43570;47.476;19.040;2023-02-04T09:31:31;4.82;;;2.97;;
57730;SDS011;43570;47.476;19.040;2023-02-04T09:33:56;4.22;;;2.78;;
57730;SDS011;43570;47.476;19.040;2023-02-04T09:36:21;3.85;;;2.58;;
57730;SDS011;43570;47.476;19.040;2023-02-04T09:38:47;4.07;;;3.10;;
57730;SDS011;43570;47.476;19.040;2023-02-04T09:41:12;4.55;;;2.60;;
57730;SDS011;43570;47.476;19.040;2023-02-04T09:43:43;4.62;;;2.70;;
57730;SDS011;43570;47.476;19.040;2023-02-04T09:46:15;4.68;;;2.83;;
57730;SDS011;43570;47.476;19.040;2023-02-04T09:48:44;6.05;;;2.75;;
57730;SDS011;43570;47.476;19.040;2023-02-04T09:51:16;3.90;;;2.53;;
57730;SDS011;43570;47.476;19.040;2023-02-04T09:53:43;3.62;;;2.30;;
57730;SDS011;43570;47.476;19.040;2023-02-04T09:56:10;4.53;;;2.50;;
57730;SDS011;43570;47.476;19.040;2023-02-04T09:58:35;4.62;;;2.58;;
57730;SDS011;43570;47.476;19.040;2023-02-04T10:01:08;3.97;;;2.37;;
57730;SDS011;43570;47.476;19.040;2023-02-04T10:03:39;3.90;;;2.35;;
57730;SDS011;43570;47.476;19.040;2023-02-04T10:06:17;3.45;;;2.03;;
57730;SDS011;43570;47.476;19.040;2023-02-04T10:08:44;3.60;;;2.42;;
57730;SDS011;43570;47.476;19.040;2023-02-04T10:11:11;4.15;;;2.15;;
57730;SDS011;43570;47.476;19.040;2023-02-04T10:13:38;4.70;;;2.20;;
57730;SDS011;43570;47.476;19.040;2023-02-04T10:16:13;4.15;;;2.10;;
57730;SDS011;43570;47.476;19.040;2023-02-04T10:18:41;2.50;;;1.90;;
57730;SDS011;43570;47.476;19.040;2023-02-04T10:21:16;3.67;;;1.77;;
57730;SDS011;43570;47.476;19.040;2023-02-04T10:23:49;3.30;;;1.85;;
57730;SDS011;43570;47.476;19.040;2023-02-04T10:26:15;3.80;;;1.80;;
57730;SDS011;43570;47.476;19.040;2023-02-04T10:28:42;3.87;;;1.95;;
57730;SDS011;43570;47.476;19.040;2023-02-04T10:31:26;3.78;;;1.90;;
57730;SDS011;43570;47.476;19.040;2023-02-04T10:34:15;2.60;;;1.70;;
57730;SDS011;43570;47.476;19.040;2023-02-04T10:36:45;4.12;;;1.80;;
57730;SDS011;43570;47.476;19.040;2023-02-04T10:39:16;3.35;;;1.85;;
57730;SDS011;43570;47.476;19.040;2023-02-04T10:41:48;3.42;;;2.08;;
57730;SDS011;43570;47.476;19.040;2023-02-04T10:44:27;4.60;;;1.70;;
57730;SDS011;43570;47.476;19.040;2023-02-04T10:47:26;3.60;;;1.62;;
57730;SDS011;43570;47.476;19.040;2023-02-04T10:52:34;4.07;;;1.90;;
57730;SDS011;43570;47.476;19.040;2023-02-04T10:55:02;4.60;;;1.98;;
57730;SDS011;43570;47.476;19.040;2023-02-04T10:57:28;3.72;;;2.03;;
57730;SDS011;43570;47.476;19.040;2023-02-04T10:59:55;3.85;;;1.80;;
57730;SDS011;43570;47.476;19.040;2023-02-04T11:04:56;3.08;;;2.00;;
57730;SDS011;43570;47.476;19.040;2023-02-04T11:07:22;5.45;;;2.10;;
57730;SDS011;43570;47.476;19.040;2023-02-04T11:09:48;3.17;;;1.80;;
57730;SDS011;43570;47.476;19.040;2023-02-04T11:12:20;3.60;;;2.08;;
57730;SDS011;43570;47.476;19.040;2023-02-04T11:15:34;3.05;;;1.92;;
57730;SDS011;43570;47.476;19.040;2023-02-04T11:18:02;3.12;;;1.90;;
57730;SDS011;43570;47.476;19.040;2023-02-04T11:20:30;4.55;;;2.10;;
57730;SDS011;43570;47.476;19.040;2023-02-04T11:22:56;3.70;;;2.30;;
57730;SDS011;43570;47.476;19.040;2023-02-04T11:25:35;3.20;;;1.73;;
57730;SDS011;43570;47.476;19.040;2023-02-04T11:28:23;3.12;;;1.85;;
57730;SDS011;43570;47.476;19.040;2023-02-04T11:30:59;4.53;;;2.00;;
57730;SDS011;43570;47.476;19.040;2023-02-04T11:33:38;2.90;;;1.48;;
57730;SDS011;43570;47.476;19.040;2023-02-04T11:36:07;3.95;;;1.67;;
57730;SDS011;43570;47.476;19.040;2023-02-04T11:38:33;2.92;;;1.77;;
57730;SDS011;43570;47.476;19.040;2023-02-04T11:40:59;5.53;;;2.90;;
57730;SDS011;43570;47.476;19.040;2023-02-04T11:43:25;3.65;;;1.50;;
57730;SDS011;43570;47.476;19.040;2023-02-04T11:48:39;3.30;;;1.70;;
57730;SDS011;43570;47.476;19.040;2023-02-04T11:51:13;2.12;;;1.52;;
57730;SDS011;43570;47.476;19.040;2023-02-04T11:53:39;2.22;;;1.70;;
57730;SDS011;43570;47.476;19.040;2023-02-04T11:56:05;2.97;;;1.45;;
57730;SDS011;43570;47.476;19.040;2023-02-04T11:58:31;2.85;;;1.75;;
57730;SDS011;43570;47.476;19.040;2023-02-04T12:00:57;2.90;;;1.75;;
57730;SDS011;43570;47.476;19.040;2023-02-04T12:03:27;1.80;;;1.15;;
57730;SDS011;43570;47.476;19.040;2023-02-04T12:05:58;2.87;;;1.60;;
57730;SDS011;43570;47.476;19.040;2023-02-04T12:08:25;3.05;;;1.50;;
57730;SDS011;43570;47.476;19.040;2023-02-04T12:13:23;4.37;;;1.60;;
57730;SDS011;43570;47.476;19.040;2023-02-04T12:18:25;1.80;;;1.30;;
57730;SDS011;43570;47.476;19.040;2023-02-04T12:20:54;3.12;;;1.80;;
57730;SDS011;43570;47.476;19.040;2023-02-04T12:23:20;4.57;;;1.55;;
57730;SDS011;43570;47.476;19.040;2023-02-04T12:25:46;2.97;;;1.70;;
57730;SDS011;43570;47.476;19.040;2023-02-04T12:28:12;2.60;;;1.60;;
57730;SDS011;43570;47.476;19.040;2023-02-04T12:30:37;2.97;;;1.83;;
57730;SDS011;43570;47.476;19.040;2023-02-04T12:33:03;2.00;;;1.37;;
57730;SDS011;43570;47.476;19.040;2023-02-04T12:35:28;2.33;;;1.87;;
57730;SDS011;43570;47.476;19.040;2023-02-04T12:37:53;3.50;;;2.00;;
57730;SDS011;43570;47.476;19.040;2023-02-04T12:40:19;3.62;;;1.90;;
57730;SDS011;43570;47.476;19.040;2023-02-04T12:42:45;2.83;;;2.05;;
57730;SDS011;43570;47.476;19.040;2023-02-04T12:45:11;4.22;;;2.17;;
57730;SDS011;43570;47.476;19.040;2023-02-04T12:47:38;4.28;;;2.42;;
57730;SDS011;43570;47.476;19.040;2023-02-04T12:50:04;5.47;;;1.95;;
57730;SDS011;43570;47.476;19.040;2023-02-04T12:52:30;3.67;;;2.20;;
57730;SDS011;43570;47.476;19.040;2023-02-04T12:54:55;3.58;;;2.20;;
57730;SDS011;43570;47.476;19.040;2023-02-04T12:57:21;5.18;;;2.42;;
57730;SDS011;43570;47.476;19.040;2023-02-04T12:59:46;3.45;;;2.10;;
57730;SDS011;43570;47.476;19.040;2023-02-04T13:02:13;4.40;;;2.37;;
57730;SDS011;43570;47.476;19.040;2023-02-04T13:04:39;3.87;;;2.10;;
57730;SDS011;43570;47.476;19.040;2023-02-04T13:07:06;4.00;;;2.22;;
57730;SDS011;43570;47.476;19.040;2023-02-04T13:09:33;3.95;;;2.03;;
57730;SDS011;43570;47.476;19.040;2023-02-04T13:11:59;3.62;;;2.15;;
57730;SDS011;43570;47.476;19.040;2023-02-04T13:14:24;4.47;;;2.20;;
57730;SDS011;43570;47.476;19.040;2023-02-04T13:16:50;5.37;;;2.50;;
57730;SDS011;43570;47.476;19.040;2023-02-04T13:19:16;3.72;;;2.35;;
57730;SDS011;43570;47.476;19.040;2023-02-04T13:21:41;4.20;;;2.20;;
57730;SDS011;43570;47.476;19.040;2023-02-04T13:24:06;4.10;;;2.58;;
57730;SDS011;43570;47.476;19.040;2023-02-04T13:26:32;5.85;;;2.70;;
57730;SDS011;43570;47.476;19.040;2023-02-04T13:28:57;4.50;;;2.37;;
57730;SDS011;43570;47.476;19.040;2023-02-04T13:31:23;4.78;;;2.55;;
57730;SDS011;43570;47.476;19.040;2023-02-04T13:33:48;5.12;;;2.47;;
57730;SDS011;43570;47.476;19.040;2023-02-04T13:36:14;4.70;;;2.50;;
57730;SDS011;43570;47.476;19.040;2023-02-04T13:38:39;3.58;;;2.37;;
57730;SDS011;43570;47.476;19.040;2023-02-04T13:41:04;3.55;;;2.37;;
57730;SDS011;43570;47.476;19.040;2023-02-04T13:43:30;4.07;;;2.30;;
57730;SDS011;43570;47.476;19.040;2023-02-04T13:45:55;4.18;;;2.70;;
57730;SDS011;43570;47.476;19.040;2023-02-04T13:48:22;5.53;;;2.30;;
57730;SDS011;43570;47.476;19.040;2023-02-04T13:50:47;3.53;;;2.15;;
57730;SDS011;43570;47.476;19.040;2023-02-04T13:53:14;3.75;;;2.30;;
57730;SDS011;43570;47.476;19.040;2023-02-04T13:55:40;6.47;;;2.30;;
57730;SDS011;43570;47.476;19.040;2023-02-04T13:58:05;5.25;;;2.60;;
57730;SDS011;43570;47.476;19.040;2023-02-04T14:00:31;6.37;;;2.92;;
57730;SDS011;43570;47.476;19.040;2023-02-04T14:02:56;5.07;;;2.60;;
57730;SDS011;43570;47.476;19.040;2023-02-04T14:05:22;5.72;;;2.60;;
57730;SDS011;43570;47.476;19.040;2023-02-04T14:07:47;4.18;;;2.62;;
57730;SDS011;43570;47.476;19.040;2023-02-04T14:10:13;4.45;;;2.62;;
57730;SDS011;43570;47.476;19.040;2023-02-04T14:12:38;4.95;;;2.70;;
57730;SDS011;43570;47.476;19.040;2023-02-04T14:15:05;6.03;;;2.75;;
57730;SDS011;43570;47.476;19.040;2023-02-04T14:17:31;4.40;;;2.92;;
57730;SDS011;43570;47.476;19.040;2023-02-04T14:19:56;4.70;;;2.92;;
57730;SDS011;43570;47.476;19.040;2023-02-04T14:22:22;4.87;;;2.80;;
57730;SDS011;43570;47.476;19.040;2023-02-04T14:24:47;4.60;;;2.80;;
57730;SDS011;43570;47.476;19.040;2023-02-04T14:27:14;5.55;;;3.08;;
57730;SDS011;43570;47.476;19.040;2023-02-04T14:29:40;4.95;;;2.87;;
57730;SDS011;43570;47.476;19.040;2023-02-04T14:32:06;5.95;;;3.25;;
57730;SDS011;43570;47.476;19.040;2023-02-04T14:34:31;4.50;;;2.90;;
57730;SDS011;43570;47.476;19.040;2023-02-04T14:36:56;4.68;;;3.00;;
57730;SDS011;43570;47.476;19.040;2023-02-04T14:39:22;5.28;;;3.50;;
57730;SDS011;43570;47.476;19.040;2023-02-04T14:41:47;7.32;;;3.62;;
57730;SDS011;43570;47.476;19.040;2023-02-04T14:44:13;4.80;;;3.22;;